createdAt,value
2022-08-10T00:02:16.764Z,4.00
2022-08-10T00:04:45.968Z,4.43
2022-08-10T00:07:14.902Z,4.70
2022-08-10T00:09:50.956Z,4.90
2022-08-10T00:12:20.974Z,4.80
2022-08-10T00:14:51.643Z,4.43
2022-08-10T00:17:20.967Z,4.33
2022-08-10T00:20:03.645Z,4.20
2022-08-10T00:22:37.609Z,4.30
2022-08-10T00:25:22.075Z,4.47
2022-08-10T00:28:02.637Z,5.33
2022-08-10T00:30:34.539Z,4.00
2022-08-10T00:33:03.560Z,4.50
2022-08-10T00:35:32.596Z,4.93
2022-08-10T00:38:02.145Z,4.77
2022-08-10T00:40:36.936Z,4.30
2022-08-10T00:43:07.153Z,4.80
2022-08-10T00:45:38.287Z,4.30
2022-08-10T00:48:07.907Z,4.77
2022-08-10T00:50:38.000Z,3.80
2022-08-10T00:53:08.231Z,4.20
2022-08-10T00:57:16.913Z,4.80
2022-08-10T00:58:26.577Z,4.10
2022-08-10T01:00:57.782Z,5.00
2022-08-10T01:04:40.070Z,4.90
2022-08-10T01:06:31.319Z,4.63
2022-08-10T01:09:09.201Z,4.43
2022-08-10T01:12:39.932Z,4.53
2022-08-10T01:14:41.056Z,4.90
2022-08-10T01:17:19.436Z,4.83
2022-08-10T01:19:58.688Z,5.40
2022-08-10T01:22:43.134Z,5.03
2022-08-10T01:25:33.503Z,5.30
2022-08-10T01:28:33.103Z,4.60
2022-08-10T01:31:05.973Z,4.40
2022-08-10T01:33:57.867Z,4.47
2022-08-10T01:36:32.850Z,4.70
2022-08-10T01:39:05.108Z,4.73
2022-08-10T01:41:46.892Z,5.07
2022-08-10T01:44:20.354Z,5.13
2022-08-10T01:46:57.512Z,6.00
2022-08-10T01:49:27.320Z,5.30
2022-08-10T01:52:00.825Z,5.43
2022-08-10T01:54:34.489Z,6.00
2022-08-10T01:57:05.079Z,5.50
2022-08-10T01:59:36.452Z,6.10
2022-08-10T02:02:10.883Z,5.43
2022-08-10T02:04:43.668Z,4.57
2022-08-10T02:07:18.089Z,6.33
2022-08-10T02:09:50.160Z,4.60
2022-08-10T02:12:23.440Z,5.53
2022-08-10T02:14:54.862Z,5.33
2022-08-10T02:17:57.945Z,5.33
2022-08-10T02:20:22.403Z,5.57
2022-08-10T02:22:55.089Z,5.90
2022-08-10T02:25:40.060Z,5.60
2022-08-10T02:28:29.343Z,5.60
2022-08-10T02:31:02.961Z,6.10
2022-08-10T02:33:38.895Z,5.20
2022-08-10T02:36:28.864Z,6.10
2022-08-10T02:39:01.478Z,5.60
2022-08-10T02:45:01.161Z,5.57
2022-08-10T02:45:18.213Z,5.60
2022-08-10T02:47:27.503Z,5.63
2022-08-10T02:50:04.402Z,6.27
2022-08-10T02:52:40.450Z,5.70
2022-08-10T02:55:27.202Z,6.67
2022-08-10T02:58:16.879Z,5.77
2022-08-10T03:00:50.868Z,5.23
2022-08-10T03:03:22.372Z,6.57
2022-08-10T03:05:57.742Z,5.20
2022-08-10T03:08:29.590Z,7.40
2022-08-10T03:11:00.663Z,6.30
2022-08-10T03:13:31.469Z,6.20
2022-08-10T03:16:01.730Z,6.43
2022-08-10T03:18:32.992Z,7.13
2022-08-10T03:21:06.775Z,6.80
2022-08-10T03:23:41.172Z,6.30
2022-08-10T03:26:11.681Z,6.40
2022-08-10T03:28:41.136Z,6.90
2022-08-10T03:31:10.092Z,7.00
2022-08-10T03:33:40.712Z,6.17
2022-08-10T03:36:42.184Z,7.07
2022-08-10T03:39:00.411Z,8.83
2022-08-10T03:41:35.611Z,6.87
2022-08-10T03:44:06.288Z,8.07
2022-08-10T03:46:38.451Z,7.63
2022-08-10T03:49:08.300Z,9.03
2022-08-10T03:51:39.921Z,7.00
2022-08-10T03:54:09.207Z,6.87
2022-08-10T03:56:38.891Z,6.10
2022-08-10T03:59:11.914Z,6.43
2022-08-10T04:02:44.211Z,6.60
2022-08-10T04:04:30.851Z,6.37
2022-08-10T04:07:01.888Z,6.70
2022-08-10T04:09:53.116Z,6.83
2022-08-10T04:12:22.405Z,7.00
2022-08-10T04:14:52.985Z,7.00
2022-08-10T04:18:03.442Z,7.07
2022-08-10T04:20:19.290Z,7.23
2022-08-10T04:22:52.283Z,8.27
2022-08-10T04:25:23.830Z,7.40
2022-08-10T04:27:52.511Z,7.10
2022-08-10T04:30:21.612Z,6.60
2022-08-10T04:32:54.057Z,6.43
2022-08-10T04:35:25.056Z,6.63
2022-08-10T04:37:57.029Z,6.50
2022-08-10T04:40:29.761Z,6.97
2022-08-10T04:43:11.620Z,6.13
2022-08-10T04:45:47.764Z,7.57
2022-08-10T04:48:40.877Z,6.57
2022-08-10T04:51:17.008Z,5.73
2022-08-10T04:54:04.863Z,6.90
2022-08-10T04:56:36.801Z,6.80
2022-08-10T04:59:06.456Z,6.83
2022-08-10T05:02:22.399Z,8.13
2022-08-10T05:04:37.154Z,7.20
2022-08-10T05:07:16.302Z,7.17
2022-08-10T05:10:03.583Z,7.47
2022-08-10T05:12:36.499Z,7.13
2022-08-10T05:15:08.128Z,7.27
2022-08-10T05:17:36.986Z,7.60
2022-08-10T05:20:07.774Z,6.77
2022-08-10T05:22:38.370Z,7.10
2022-08-10T05:25:10.560Z,6.17
2022-08-10T05:27:39.852Z,6.60
2022-08-10T05:30:10.453Z,7.00
2022-08-10T05:32:56.959Z,6.70
2022-08-10T05:35:28.780Z,7.00
2022-08-10T05:38:14.682Z,6.10
2022-08-10T05:40:47.400Z,5.77
2022-08-10T05:43:18.475Z,6.20
2022-08-10T05:46:16.903Z,6.20
2022-08-10T05:48:54.187Z,6.80
2022-08-10T05:51:27.596Z,6.20
2022-08-10T05:54:03.615Z,5.50
2022-08-10T05:56:56.016Z,5.40
2022-08-10T06:00:34.770Z,6.00
2022-08-10T06:02:33.058Z,5.40
2022-08-10T06:05:08.233Z,5.70
2022-08-10T06:07:40.111Z,6.30
2022-08-10T06:10:12.391Z,5.70
2022-08-10T06:12:53.406Z,5.10
2022-08-10T06:15:50.548Z,5.30
2022-08-10T06:18:12.959Z,5.47
2022-08-10T06:20:42.176Z,5.53
2022-08-10T06:23:12.666Z,5.60
2022-08-10T06:26:09.856Z,5.23
2022-08-10T06:28:34.865Z,5.50
2022-08-10T06:31:05.598Z,5.50
2022-08-10T06:33:37.033Z,5.23
2022-08-10T06:36:07.443Z,5.10
2022-08-10T06:38:39.297Z,4.83
2022-08-10T06:41:19.492Z,5.60
2022-08-10T06:43:57.857Z,5.00
2022-08-10T06:46:29.158Z,5.30
2022-08-10T06:49:02.208Z,5.27
2022-08-10T06:51:34.594Z,5.40
2022-08-10T06:54:07.079Z,5.97
2022-08-10T06:56:50.855Z,4.73
2022-08-10T06:59:37.340Z,5.53
2022-08-10T07:02:08.696Z,5.63
2022-08-10T07:04:43.429Z,7.03
2022-08-10T07:07:18.228Z,5.27
2022-08-10T07:09:48.174Z,5.97
2022-08-10T07:12:18.424Z,6.20
2022-08-10T07:14:51.316Z,5.63
2022-08-10T07:17:22.712Z,6.80
2022-08-10T07:19:54.190Z,5.60
2022-08-10T07:23:22.717Z,5.37
2022-08-10T07:25:17.846Z,5.43
2022-08-10T07:27:59.617Z,5.17
2022-08-10T07:30:35.002Z,6.30
2022-08-10T07:33:05.761Z,6.50
2022-08-10T07:35:42.648Z,6.70
2022-08-10T07:38:17.117Z,5.97
2022-08-10T07:40:46.532Z,8.10
2022-08-10T07:43:17.259Z,6.87
2022-08-10T07:45:49.300Z,6.20
2022-08-10T07:48:20.904Z,7.33
2022-08-10T07:50:55.133Z,6.53
2022-08-10T07:53:43.135Z,5.70
2022-08-10T07:56:26.355Z,5.30
2022-08-10T07:59:05.492Z,5.17
2022-08-10T08:01:40.395Z,6.13
2022-08-10T08:04:12.113Z,4.73
2022-08-10T08:06:43.227Z,5.50
2022-08-10T08:09:12.804Z,5.03
2022-08-10T08:11:44.586Z,5.03
2022-08-10T08:14:15.698Z,5.50
2022-08-10T08:16:48.330Z,5.50
2022-08-10T08:19:37.735Z,5.10
2022-08-10T08:24:30.565Z,6.30
2022-08-10T08:24:58.464Z,5.10
2022-08-10T08:27:29.590Z,5.37
2022-08-10T08:29:59.712Z,4.90
2022-08-10T08:32:32.888Z,6.37
2022-08-10T08:35:06.160Z,4.43
2022-08-10T08:38:31.123Z,4.90
2022-08-10T08:40:30.326Z,4.80
2022-08-10T08:43:28.474Z,5.90
2022-08-10T08:46:28.750Z,6.70
2022-08-10T08:50:09.153Z,4.80
2022-08-10T08:52:53.733Z,5.20
2022-08-10T08:56:03.031Z,5.97
2022-08-10T08:58:37.555Z,5.57
2022-08-10T09:01:22.100Z,5.17
2022-08-10T09:04:19.828Z,5.53
2022-08-10T09:07:59.672Z,5.10
2022-08-10T09:10:16.082Z,4.90
2022-08-10T09:12:53.101Z,5.10
2022-08-10T09:15:40.448Z,4.80
2022-08-10T09:18:17.484Z,4.90
2022-08-10T09:20:51.055Z,5.20
2022-08-10T09:24:02.256Z,4.07
2022-08-10T09:26:23.285Z,4.03
2022-08-10T09:29:11.999Z,4.20
2022-08-10T09:33:05.541Z,4.23
2022-08-10T09:36:25.987Z,4.20
2022-08-10T09:38:02.915Z,5.00
2022-08-10T09:40:59.899Z,3.93
2022-08-10T09:43:43.335Z,4.93
2022-08-10T09:46:27.320Z,4.37
2022-08-10T09:49:04.898Z,3.93
2022-08-10T09:51:45.987Z,4.83
2022-08-10T09:54:30.338Z,4.47
2022-08-10T09:57:44.269Z,4.23
2022-08-10T10:00:13.288Z,4.27
2022-08-10T10:02:53.175Z,4.40
2022-08-10T10:05:34.773Z,4.33
2022-08-10T10:08:12.845Z,5.50
2022-08-10T10:10:50.135Z,4.20
2022-08-10T10:13:52.728Z,4.43
2022-08-10T10:16:41.381Z,4.20
2022-08-10T10:19:28.553Z,4.03
2022-08-10T10:22:16.031Z,3.90
2022-08-10T10:24:52.923Z,4.00
2022-08-10T10:27:34.421Z,3.60
2022-08-10T10:30:08.652Z,3.27
2022-08-10T10:32:57.796Z,3.33
2022-08-10T10:35:33.941Z,4.07
2022-08-10T10:38:05.962Z,3.23
2022-08-10T10:40:43.653Z,2.77
2022-08-10T10:43:30.941Z,2.93
2022-08-10T10:46:13.259Z,3.27
2022-08-10T10:48:57.178Z,3.50
2022-08-10T10:51:31.433Z,3.60
2022-08-10T10:54:11.134Z,3.40
2022-08-10T10:57:00.360Z,3.63
2022-08-10T10:59:56.264Z,3.47
2022-08-10T11:02:39.372Z,3.60
2022-08-10T11:05:19.959Z,4.10
2022-08-10T11:07:55.740Z,3.27
2022-08-10T11:10:34.353Z,3.20
2022-08-10T11:14:24.498Z,3.63
2022-08-10T11:16:21.240Z,3.63
2022-08-10T11:19:08.766Z,2.93
2022-08-10T11:21:53.413Z,3.00
2022-08-10T11:24:47.171Z,4.20
2022-08-10T11:27:25.847Z,2.90
2022-08-10T11:30:02.801Z,3.37
2022-08-10T11:32:44.414Z,3.20
2022-08-10T11:35:23.848Z,3.70
2022-08-10T11:38:32.956Z,4.27
2022-08-10T11:40:57.891Z,3.77
2022-08-10T11:43:47.672Z,5.13
2022-08-10T11:46:28.626Z,2.80
2022-08-10T11:49:07.492Z,3.53
2022-08-10T11:51:44.217Z,3.70
2022-08-10T11:54:23.181Z,4.07
2022-08-10T11:57:01.964Z,3.50
2022-08-10T11:59:58.535Z,3.77
2022-08-10T12:02:34.351Z,4.43
2022-08-10T12:05:10.010Z,3.60
2022-08-10T12:10:05.957Z,3.93
2022-08-10T12:10:40.627Z,3.43
2022-08-10T12:13:14.099Z,3.33
2022-08-10T12:15:52.688Z,3.67
2022-08-10T12:18:26.789Z,3.80
2022-08-10T12:20:59.699Z,3.77
2022-08-10T12:23:39.139Z,3.50
2022-08-10T12:26:16.588Z,3.43
2022-08-10T12:28:52.146Z,3.43
2022-08-10T12:31:27.023Z,3.70
2022-08-10T12:34:08.115Z,3.50
2022-08-10T12:36:42.354Z,3.93
2022-08-10T12:39:17.867Z,3.10
2022-08-10T12:41:54.465Z,3.60
2022-08-10T12:44:41.048Z,3.13
2022-08-10T12:47:21.874Z,3.57
2022-08-10T12:50:31.280Z,4.03
2022-08-10T12:52:54.358Z,4.30
2022-08-10T12:55:23.953Z,3.30
2022-08-10T12:57:59.288Z,3.47
2022-08-10T13:00:32.792Z,3.80
2022-08-10T13:03:03.912Z,4.23
2022-08-10T13:05:57.562Z,4.03
2022-08-10T13:08:43.234Z,4.57
2022-08-10T13:11:26.239Z,3.73
2022-08-10T13:14:11.577Z,3.30
2022-08-10T13:16:42.249Z,3.93
2022-08-10T13:19:14.163Z,3.90
2022-08-10T13:21:44.692Z,3.20
2022-08-10T13:24:17.450Z,4.10
2022-08-10T13:27:24.738Z,3.30
2022-08-10T13:30:01.553Z,3.80
2022-08-10T13:32:35.215Z,3.70
2022-08-10T13:35:11.897Z,3.53
2022-08-10T13:37:46.278Z,3.80
2022-08-10T13:40:18.509Z,3.60
2022-08-10T13:42:49.478Z,3.47
2022-08-10T13:45:23.651Z,3.37
2022-08-10T13:47:56.487Z,3.67
2022-08-10T13:50:33.055Z,3.00
2022-08-10T13:53:11.520Z,3.23
2022-08-10T13:55:53.502Z,4.00
2022-08-10T13:58:27.815Z,3.60
2022-08-10T14:01:00.522Z,3.80
2022-08-10T14:03:36.290Z,3.90
2022-08-10T14:06:07.111Z,3.77
2022-08-10T14:08:38.128Z,3.67
2022-08-10T14:11:14.998Z,3.50
2022-08-10T14:13:46.985Z,3.70
2022-08-10T14:16:19.200Z,3.90
2022-08-10T14:18:51.130Z,4.20
2022-08-10T14:21:20.735Z,3.40
2022-08-10T14:23:53.850Z,3.60
2022-08-10T14:26:26.527Z,4.20
2022-08-10T14:28:58.608Z,4.00
2022-08-10T14:31:35.021Z,3.50
2022-08-10T14:34:10.835Z,3.67
2022-08-10T14:36:44.286Z,2.90
2022-08-10T14:39:16.794Z,3.67
2022-08-10T14:42:02.883Z,3.57
2022-08-10T14:44:49.738Z,2.83
2022-08-10T14:47:52.298Z,4.20
2022-08-10T14:50:32.442Z,4.27
2022-08-10T14:53:09.563Z,3.40
2022-08-10T14:55:59.698Z,4.30
2022-08-10T14:58:28.923Z,3.40
2022-08-10T15:00:59.254Z,4.53
2022-08-10T15:04:01.498Z,3.87
2022-08-10T15:06:30.661Z,3.23
2022-08-10T15:09:12.661Z,3.30
2022-08-10T15:12:12.975Z,2.90
2022-08-10T15:14:42.482Z,3.17
2022-08-10T15:17:14.038Z,4.10
2022-08-10T15:20:02.353Z,3.63
2022-08-10T15:22:38.014Z,3.67
2022-08-10T15:25:17.763Z,3.60
2022-08-10T15:27:53.907Z,3.50
2022-08-10T15:30:30.120Z,3.60
2022-08-10T15:33:21.393Z,3.40
2022-08-10T15:36:33.022Z,3.30
2022-08-10T15:39:05.036Z,3.70
2022-08-10T15:41:58.582Z,3.17
2022-08-10T15:44:38.931Z,3.83
2022-08-10T15:47:12.140Z,3.00
2022-08-10T15:49:50.200Z,3.47
2022-08-10T15:52:39.743Z,3.70
2022-08-10T15:55:42.550Z,3.40
2022-08-10T15:58:16.144Z,3.90
2022-08-10T16:00:55.127Z,3.77
2022-08-10T16:03:27.309Z,3.50
2022-08-10T16:06:02.224Z,3.57
2022-08-10T16:08:56.100Z,3.60
2022-08-10T16:11:37.929Z,4.00
2022-08-10T16:14:20.503Z,3.60
2022-08-10T16:16:55.161Z,3.80
2022-08-10T16:19:25.836Z,3.80
2022-08-10T16:22:00.856Z,3.37
2022-08-10T16:24:35.088Z,2.97
2022-08-10T16:27:07.324Z,3.87
2022-08-10T16:29:56.497Z,3.47
2022-08-10T16:32:27.507Z,3.60
2022-08-10T16:34:58.258Z,3.07
2022-08-10T16:37:57.476Z,3.50
2022-08-10T16:40:26.953Z,3.60
2022-08-10T16:42:57.021Z,3.57
2022-08-10T16:45:33.000Z,2.93
2022-08-10T16:48:02.909Z,3.10
2022-08-10T16:50:35.216Z,3.40
2022-08-10T16:53:06.977Z,3.50
2022-08-10T16:55:48.039Z,3.20
2022-08-10T16:58:27.653Z,3.87
2022-08-10T17:01:03.035Z,3.50
2022-08-10T17:04:06.517Z,3.03
2022-08-10T17:06:35.981Z,3.10
2022-08-10T17:09:09.026Z,3.80
2022-08-10T17:11:42.514Z,3.30
2022-08-10T17:14:11.215Z,3.50
2022-08-10T17:16:42.670Z,3.03
2022-08-10T17:19:15.850Z,3.23
2022-08-10T17:21:51.668Z,3.40
2022-08-10T17:24:23.826Z,3.50
2022-08-10T17:26:56.403Z,4.30
2022-08-10T17:29:57.848Z,3.30
2022-08-10T17:32:28.448Z,3.67
2022-08-10T17:35:01.964Z,3.73
2022-08-10T17:37:36.823Z,4.10
2022-08-10T17:40:09.752Z,3.70
2022-08-10T17:42:40.922Z,3.60
2022-08-10T17:45:46.426Z,3.83
2022-08-10T17:48:09.391Z,3.80
2022-08-10T17:50:38.923Z,4.50
2022-08-10T17:53:14.457Z,4.17
2022-08-10T17:55:47.089Z,4.10
2022-08-10T17:58:18.749Z,3.80
2022-08-10T18:00:50.797Z,4.60
2022-08-10T18:03:25.764Z,4.07
2022-08-10T18:05:56.438Z,3.73
2022-08-10T18:08:29.599Z,5.03
2022-08-10T18:10:59.961Z,4.00
2022-08-10T18:13:55.761Z,3.60
2022-08-10T18:16:25.949Z,4.23
2022-08-10T18:18:58.457Z,4.10
2022-08-10T18:21:32.089Z,4.60
2022-08-10T18:24:06.045Z,4.87
2022-08-10T18:26:37.638Z,4.33
2022-08-10T18:29:13.317Z,4.30
2022-08-10T18:31:49.460Z,4.27
2022-08-10T18:34:21.456Z,4.00
2022-08-10T18:36:51.411Z,4.00
2022-08-10T18:39:25.161Z,3.40
2022-08-10T18:42:02.407Z,3.77
2022-08-10T18:44:39.000Z,4.00
2022-08-10T18:47:14.138Z,3.97
2022-08-10T18:49:57.095Z,4.47
2022-08-10T18:52:28.865Z,4.27
2022-08-10T18:55:14.610Z,3.47
2022-08-10T18:58:26.695Z,4.50
2022-08-10T19:01:12.708Z,3.93
2022-08-10T19:04:07.201Z,4.03
2022-08-10T19:07:08.972Z,4.13
2022-08-10T19:09:57.509Z,4.30
2022-08-10T19:12:49.654Z,4.10
2022-08-10T19:15:24.334Z,4.60
2022-08-10T19:18:24.059Z,4.00
2022-08-10T19:21:00.837Z,4.20
2022-08-10T19:23:41.950Z,5.10
2022-08-10T19:26:44.891Z,5.57
2022-08-10T19:30:00.892Z,4.67
2022-08-10T19:32:32.761Z,4.47
2022-08-10T19:35:18.412Z,4.30
2022-08-10T19:38:02.234Z,5.00
2022-08-10T19:40:44.749Z,4.60
2022-08-10T19:43:30.586Z,4.67
2022-08-10T19:46:25.927Z,4.20
2022-08-10T19:49:04.262Z,4.07
2022-08-10T19:51:50.327Z,4.80
2022-08-10T19:54:26.927Z,5.07
2022-08-10T19:57:03.666Z,5.77
2022-08-10T20:00:17.705Z,4.60
2022-08-10T20:02:33.177Z,6.00
2022-08-10T20:05:22.022Z,4.73
2022-08-10T20:07:59.127Z,5.60
2022-08-10T20:10:35.880Z,6.20
2022-08-10T20:13:13.632Z,5.53
2022-08-10T20:15:47.540Z,5.00
2022-08-10T20:18:27.053Z,5.60
2022-08-10T20:21:00.548Z,4.60
2022-08-10T20:23:35.204Z,4.07
2022-08-10T20:26:12.021Z,5.70
2022-08-10T20:28:44.361Z,5.97
2022-08-10T20:31:18.021Z,5.30
2022-08-10T20:33:58.642Z,4.70
2022-08-10T20:36:33.224Z,4.80
2022-08-10T20:39:18.177Z,5.40
2022-08-10T20:42:00.968Z,5.07
2022-08-10T20:44:44.522Z,4.90
2022-08-10T20:47:19.182Z,4.30
2022-08-10T20:50:03.432Z,4.57
2022-08-10T20:52:34.787Z,4.77
2022-08-10T20:55:09.609Z,5.20
2022-08-10T20:58:15.375Z,5.03
2022-08-10T21:00:51.883Z,6.17
2022-08-10T21:03:35.529Z,5.60
2022-08-10T21:06:42.186Z,4.40
2022-08-10T21:09:26.260Z,5.07
2022-08-10T21:12:20.329Z,4.40
2022-08-10T21:14:57.204Z,4.87
2022-08-10T21:17:43.771Z,4.30
2022-08-10T21:20:28.553Z,5.07
2022-08-10T21:23:05.170Z,5.70
2022-08-10T21:25:58.933Z,4.73
2022-08-10T21:29:02.871Z,5.20
2022-08-10T21:31:55.236Z,4.97
2022-08-10T21:34:54.203Z,5.10
2022-08-10T21:37:39.863Z,4.83
2022-08-10T21:40:40.597Z,4.90
2022-08-10T21:43:47.939Z,5.30
2022-08-10T21:46:55.335Z,5.27
2022-08-10T21:49:57.488Z,5.30
2022-08-10T21:53:00.848Z,5.03
2022-08-10T21:56:01.740Z,4.77
2022-08-10T21:58:54.522Z,5.77
2022-08-10T22:01:51.461Z,5.50
2022-08-10T22:04:40.098Z,5.57
2022-08-10T22:07:53.273Z,5.23
2022-08-10T22:10:41.989Z,5.20
2022-08-10T22:13:33.965Z,5.43
2022-08-10T22:16:24.993Z,5.27
2022-08-10T22:19:18.297Z,5.30
2022-08-10T22:25:35.967Z,5.90
2022-08-10T22:28:22.275Z,5.10
2022-08-10T22:31:27.693Z,5.33
2022-08-10T22:31:31.683Z,5.97
2022-08-10T22:34:32.960Z,5.90
2022-08-10T22:37:32.052Z,5.57
2022-08-10T22:40:25.308Z,5.43
2022-08-10T22:43:14.101Z,5.57
2022-08-10T22:46:25.173Z,4.40
2022-08-10T22:49:02.077Z,5.00
2022-08-10T22:51:47.096Z,5.27
2022-08-10T22:54:41.829Z,5.60
2022-08-10T22:57:32.116Z,4.50
2022-08-10T23:00:10.087Z,5.30
2022-08-10T23:02:40.144Z,4.77
2022-08-10T23:05:12.521Z,5.07
2022-08-10T23:07:48.967Z,5.20
2022-08-10T23:10:21.774Z,5.00
2022-08-10T23:12:56.563Z,5.40
2022-08-10T23:15:55.304Z,5.17
2022-08-10T23:18:50.991Z,4.57
2022-08-10T23:21:20.700Z,5.30
2022-08-10T23:23:53.614Z,5.97
2022-08-10T23:26:27.557Z,5.60
2022-08-10T23:28:59.232Z,5.00
2022-08-10T23:31:59.222Z,6.70
2022-08-10T23:34:32.714Z,5.70
2022-08-10T23:37:03.844Z,5.07
2022-08-10T23:39:37.567Z,5.23
2022-08-10T23:42:09.460Z,5.30
2022-08-10T23:44:42.875Z,5.63
2022-08-10T23:47:13.562Z,6.10
2022-08-10T23:49:43.983Z,5.17
2022-08-10T23:52:14.790Z,6.17
2022-08-10T23:54:51.123Z,5.53
2022-08-10T23:57:22.661Z,5.50
2022-08-10T23:59:56.597Z,6.03
